createdAt,value
2023-02-24T00:00:17.024Z,9.28
2023-02-24T00:01:18.964Z,9.26
2023-02-24T00:02:20.614Z,9.28
2023-02-24T00:03:22.099Z,9.27
2023-02-24T00:04:23.479Z,9.26
2023-02-24T00:05:25.340Z,9.25
2023-02-24T00:06:27.713Z,9.26
2023-02-24T00:07:29.140Z,9.26
2023-02-24T00:08:30.841Z,9.23
2023-02-24T00:09:33.949Z,9.24
2023-02-24T00:10:35.405Z,9.24
2023-02-24T00:11:38.120Z,9.24
2023-02-24T00:12:39.761Z,9.23
2023-02-24T00:13:41.714Z,9.24
2023-02-24T00:14:44.774Z,9.25
2023-02-24T00:15:46.243Z,9.23
2023-02-24T00:16:48.361Z,9.22
2023-02-24T00:17:49.799Z,9.22
2023-02-24T00:18:51.241Z,9.21
2023-02-24T00:19:52.657Z,9.21
2023-02-24T00:20:54.129Z,9.21
2023-02-24T00:21:55.532Z,9.21
2023-02-24T00:22:56.871Z,9.21
2023-02-24T00:23:58.225Z,9.21
2023-02-24T00:24:59.632Z,9.22
2023-02-24T00:26:02.479Z,9.21
2023-02-24T00:27:05.187Z,9.19
2023-02-24T00:28:06.523Z,9.19
2023-02-24T00:29:09.275Z,9.18
2023-02-24T00:30:10.917Z,9.19
2023-02-24T00:31:13.661Z,9.17
2023-02-24T00:32:15.411Z,9.19
2023-02-24T00:33:16.816Z,9.19
2023-02-24T00:34:18.105Z,9.17
2023-02-24T00:35:19.514Z,9.17
2023-02-24T00:36:21.294Z,9.14
2023-02-24T00:37:22.700Z,9.15
2023-02-24T00:38:24.069Z,9.16
2023-02-24T00:39:26.038Z,9.19
2023-02-24T00:40:27.353Z,9.17
2023-02-24T00:41:30.338Z,9.18
2023-02-24T00:42:32.783Z,9.13
2023-02-24T00:43:34.267Z,9.12
2023-02-24T00:44:44.541Z,9.14
2023-02-24T00:45:45.874Z,9.09
2023-02-24T00:46:48.167Z,9.07
2023-02-24T00:47:49.796Z,9.04
2023-02-24T00:48:52.269Z,9.03
2023-02-24T00:49:53.652Z,9.03
2023-02-24T00:50:55.216Z,9.04
2023-02-24T00:51:56.627Z,9.06
2023-02-24T00:52:58.012Z,9.05
2023-02-24T00:53:59.739Z,9.06
2023-02-24T00:55:01.341Z,9.03
2023-02-24T00:56:04.226Z,9.02
2023-02-24T00:57:05.523Z,9.03
2023-02-24T00:58:06.807Z,9.03
2023-02-24T00:59:10.096Z,9.03
2023-02-24T01:00:12.894Z,9.01
2023-02-24T01:01:15.867Z,9.00
2023-02-24T01:02:17.280Z,8.99
2023-02-24T01:03:19.079Z,8.97
2023-02-24T01:04:21.005Z,8.94
2023-02-24T01:05:22.483Z,8.93
2023-02-24T01:06:26.325Z,8.93
2023-02-24T01:07:27.593Z,8.93
2023-02-24T01:08:29.310Z,8.91
2023-02-24T01:09:31.653Z,8.90
2023-02-24T01:10:33.196Z,8.90
2023-02-24T01:11:35.819Z,8.89
2023-02-24T01:12:37.371Z,8.89
2023-02-24T01:13:38.656Z,8.90
2023-02-24T01:14:43.260Z,8.90
2023-02-24T01:15:45.258Z,8.90
2023-02-24T01:16:46.547Z,8.89
2023-02-24T01:17:48.803Z,8.88
2023-02-24T01:18:50.260Z,8.86
2023-02-24T01:19:51.547Z,8.85
2023-02-24T01:20:52.800Z,8.85
2023-02-24T01:21:54.096Z,8.86
2023-02-24T01:22:55.355Z,8.87
2023-02-24T01:23:56.689Z,8.86
2023-02-24T01:24:57.976Z,8.86
2023-02-24T01:25:59.443Z,8.86
2023-02-24T01:27:02.012Z,8.85
2023-02-24T01:28:04.931Z,8.84
2023-02-24T01:29:06.463Z,8.83
2023-02-24T01:30:09.632Z,8.83
2023-02-24T01:31:14.216Z,8.81
2023-02-24T01:32:20.623Z,8.81
2023-02-24T01:33:22.108Z,8.80
2023-02-24T01:34:25.293Z,8.79
2023-02-24T01:35:26.693Z,8.78
2023-02-24T01:36:28.128Z,8.79
2023-02-24T01:37:29.412Z,8.79
2023-02-24T01:38:31.072Z,8.79
2023-02-24T01:39:33.727Z,8.78
2023-02-24T01:40:37.319Z,8.80
2023-02-24T01:41:39.979Z,8.81
2023-02-24T01:42:44.726Z,8.80
2023-02-24T01:43:58.032Z,8.81
2023-02-24T01:45:04.612Z,8.80
2023-02-24T01:46:05.882Z,8.80
2023-02-24T01:47:07.319Z,8.81
2023-02-24T01:48:10.077Z,8.81
2023-02-24T01:49:29.529Z,8.81
2023-02-24T01:50:32.550Z,8.80
2023-02-24T01:51:39.902Z,8.79
2023-02-24T01:52:42.144Z,8.79
2023-02-24T01:53:44.722Z,8.78
2023-02-24T01:54:48.611Z,8.79
2023-02-24T01:55:50.868Z,8.78
2023-02-24T01:56:52.919Z,8.78
2023-02-24T01:57:55.975Z,8.76
2023-02-24T01:58:58.826Z,8.79
2023-02-24T02:00:00.654Z,8.78
2023-02-24T02:01:02.075Z,8.76
2023-02-24T02:02:05.194Z,8.76
2023-02-24T02:03:09.576Z,8.76
2023-02-24T02:04:23.427Z,8.77
2023-02-24T02:05:28.358Z,8.77
2023-02-24T02:06:31.081Z,8.76
2023-02-24T02:07:32.436Z,8.75
2023-02-24T02:08:34.764Z,8.75
2023-02-24T02:09:36.298Z,8.75
2023-02-24T02:10:38.631Z,8.75
2023-02-24T02:11:39.895Z,8.75
2023-02-24T02:12:45.107Z,8.76
2023-02-24T02:13:48.550Z,8.75
2023-02-24T02:14:51.586Z,8.75
2023-02-24T02:16:09.629Z,8.73
2023-02-24T02:17:21.399Z,8.73
2023-02-24T02:18:36.807Z,8.74
2023-02-24T02:19:59.015Z,8.75
2023-02-24T02:21:21.672Z,8.73
2023-02-24T02:22:29.050Z,8.72
2023-02-24T02:23:38.828Z,8.70
2023-02-24T02:24:45.653Z,8.69
2023-02-24T02:25:55.829Z,8.71
2023-02-24T02:27:15.160Z,8.72
2023-02-24T02:28:36.871Z,8.70
2023-02-24T02:29:59.247Z,8.71
2023-02-24T02:31:19.822Z,8.69
2023-02-24T02:32:40.271Z,8.69
2023-02-24T02:34:00.199Z,8.69
2023-02-24T02:35:04.726Z,8.70
2023-02-24T02:36:15.006Z,8.69
2023-02-24T02:37:36.620Z,8.70
2023-02-24T02:38:56.969Z,8.69
2023-02-24T02:40:21.964Z,8.66
2023-02-24T02:41:27.744Z,8.66
2023-02-24T02:42:40.675Z,8.66
2023-02-24T02:43:47.224Z,8.65
2023-02-24T02:44:51.665Z,8.64
2023-02-24T02:46:08.065Z,8.63
2023-02-24T02:47:12.727Z,8.64
2023-02-24T02:48:19.001Z,8.64
2023-02-24T02:49:31.551Z,8.64
2023-02-24T02:50:41.740Z,8.63
2023-02-24T02:51:49.218Z,8.62
2023-02-24T02:52:53.079Z,8.62
2023-02-24T02:54:00.344Z,8.63
2023-02-24T02:55:04.875Z,8.63
2023-02-24T02:56:16.023Z,8.62
2023-02-24T02:57:23.762Z,8.63
2023-02-24T02:58:29.634Z,8.64
2023-02-24T02:59:35.966Z,8.63
2023-02-24T03:00:40.923Z,8.64
2023-02-24T03:01:43.557Z,8.62
2023-02-24T03:02:47.369Z,8.64
2023-02-24T03:03:53.991Z,8.63
2023-02-24T03:05:00.524Z,8.64
2023-02-24T03:06:05.458Z,8.63
2023-02-24T03:07:08.955Z,8.61
2023-02-24T03:08:12.754Z,8.60
2023-02-24T03:09:18.839Z,8.60
2023-02-24T03:10:22.987Z,8.61
2023-02-24T03:11:25.773Z,8.61
2023-02-24T03:12:29.446Z,8.60
2023-02-24T03:13:34.488Z,8.58
2023-02-24T03:14:41.784Z,8.58
2023-02-24T03:15:44.392Z,8.61
2023-02-24T03:16:48.412Z,8.61
2023-02-24T03:17:53.677Z,8.59
2023-02-24T03:19:07.144Z,8.56
2023-02-24T03:20:08.508Z,8.55
2023-02-24T03:21:15.091Z,8.56
2023-02-24T03:22:21.285Z,8.55
2023-02-24T03:23:24.671Z,8.56
2023-02-24T03:24:26.055Z,8.56
2023-02-24T03:25:39.631Z,8.54
2023-02-24T03:26:55.224Z,8.53
2023-02-24T03:28:01.860Z,8.52
2023-02-24T03:29:06.640Z,8.51
2023-02-24T03:30:22.298Z,8.52
2023-02-24T03:31:28.330Z,8.50
2023-02-24T03:32:38.523Z,8.50
2023-02-24T03:33:46.697Z,8.51
2023-02-24T03:34:56.261Z,8.51
2023-02-24T03:35:58.084Z,8.50
2023-02-24T03:36:59.759Z,8.51
2023-02-24T03:38:02.487Z,8.52
2023-02-24T03:39:04.398Z,8.48
2023-02-24T03:40:08.459Z,8.49
2023-02-24T03:41:10.058Z,8.50
2023-02-24T03:42:17.620Z,8.52
2023-02-24T03:43:23.741Z,8.50
2023-02-24T03:44:25.120Z,8.51
2023-02-24T03:45:29.889Z,8.50
2023-02-24T03:46:32.058Z,8.53
2023-02-24T03:47:36.215Z,8.54
2023-02-24T03:48:45.120Z,8.52
2023-02-24T03:49:47.771Z,8.53
2023-02-24T03:50:51.929Z,8.52
2023-02-24T03:52:20.807Z,8.51
2023-02-24T03:53:41.838Z,8.51
2023-02-24T03:54:43.952Z,8.51
2023-02-24T03:55:58.073Z,8.52
2023-02-24T03:57:19.420Z,8.52
2023-02-24T03:58:23.425Z,8.52
2023-02-24T03:59:27.957Z,8.50
2023-02-24T04:00:34.485Z,8.51
2023-02-24T04:01:50.424Z,8.48
2023-02-24T04:03:01.009Z,8.46
2023-02-24T04:04:02.272Z,8.46
2023-02-24T04:05:20.511Z,8.41
2023-02-24T04:06:39.085Z,8.40
2023-02-24T04:07:48.048Z,8.38
2023-02-24T04:08:56.970Z,8.37
2023-02-24T04:10:21.146Z,8.35
2023-02-24T04:11:36.513Z,8.37
2023-02-24T04:12:43.456Z,8.38
2023-02-24T04:14:03.923Z,8.39
2023-02-24T04:15:12.433Z,8.34
2023-02-24T04:16:21.840Z,8.34
2023-02-24T04:17:28.970Z,8.32
2023-02-24T04:18:31.988Z,8.34
2023-02-24T04:19:35.782Z,8.33
2023-02-24T04:20:38.234Z,8.31
2023-02-24T04:21:41.529Z,8.32
2023-02-24T04:22:47.608Z,8.31
2023-02-24T04:23:50.176Z,8.32
2023-02-24T04:24:55.484Z,8.32
2023-02-24T04:25:56.981Z,8.31
2023-02-24T04:27:00.703Z,8.33
2023-02-24T04:28:05.251Z,8.32
2023-02-24T04:29:08.362Z,8.32
2023-02-24T04:30:11.643Z,8.31
2023-02-24T04:31:13.582Z,8.32
2023-02-24T04:32:18.452Z,8.31
2023-02-24T04:33:20.195Z,8.32
2023-02-24T04:34:21.708Z,8.33
2023-02-24T04:35:25.234Z,8.33
2023-02-24T04:36:27.026Z,8.32
2023-02-24T04:37:28.323Z,8.29
2023-02-24T04:38:29.784Z,8.29
2023-02-24T04:39:31.981Z,8.29
2023-02-24T04:40:35.276Z,8.28
2023-02-24T04:41:36.560Z,8.27
2023-02-24T04:42:38.594Z,8.27
2023-02-24T04:43:39.819Z,8.24
2023-02-24T04:44:41.222Z,8.24
2023-02-24T04:45:42.605Z,8.24
2023-02-24T04:46:44.492Z,8.23
2023-02-24T04:47:46.258Z,8.22
2023-02-24T04:48:47.474Z,8.21
2023-02-24T04:49:48.758Z,8.20
2023-02-24T04:50:49.999Z,8.23
2023-02-24T04:51:51.382Z,8.25
2023-02-24T04:52:54.249Z,8.24
2023-02-24T04:53:55.564Z,8.24
2023-02-24T04:54:56.799Z,8.21
2023-02-24T04:56:02.108Z,8.20
2023-02-24T04:57:03.563Z,8.19
2023-02-24T04:58:04.841Z,8.18
2023-02-24T04:59:06.666Z,8.18
2023-02-24T05:00:09.326Z,8.19
2023-02-24T05:01:11.096Z,8.18
2023-02-24T05:02:12.521Z,8.18
2023-02-24T05:03:14.009Z,8.18
2023-02-24T05:04:15.588Z,8.15
2023-02-24T05:05:18.368Z,8.14
2023-02-24T05:06:19.594Z,8.15
2023-02-24T05:07:23.438Z,8.14
2023-02-24T05:08:25.480Z,8.11
2023-02-24T05:09:27.723Z,8.11
2023-02-24T05:10:30.178Z,8.12
2023-02-24T05:11:31.653Z,8.12
2023-02-24T05:12:32.890Z,8.10
2023-02-24T05:13:34.249Z,8.11
2023-02-24T05:14:42.785Z,8.10
2023-02-24T05:15:45.771Z,8.08
2023-02-24T05:16:47.874Z,8.08
2023-02-24T05:17:49.398Z,8.09
2023-02-24T05:18:50.854Z,8.09
2023-02-24T05:19:52.027Z,8.07
2023-02-24T05:20:54.257Z,8.07
2023-02-24T05:21:55.565Z,8.07
2023-02-24T05:22:56.786Z,8.12
2023-02-24T05:23:58.235Z,8.11
2023-02-24T05:24:59.507Z,8.09
2023-02-24T05:26:01.394Z,8.07
2023-02-24T05:27:03.290Z,8.04
2023-02-24T05:28:05.194Z,8.06
2023-02-24T05:29:08.881Z,8.05
2023-02-24T05:30:10.586Z,8.05
2023-02-24T05:31:20.430Z,8.06
2023-02-24T05:32:22.517Z,8.06
2023-02-24T05:33:24.023Z,8.06
2023-02-24T05:34:26.765Z,8.04
2023-02-24T05:35:28.098Z,8.03
2023-02-24T05:36:31.351Z,8.03
2023-02-24T05:37:36.839Z,8.05
2023-02-24T05:38:38.739Z,8.05
2023-02-24T05:39:39.988Z,8.08
2023-02-24T05:40:41.418Z,8.06
2023-02-24T05:41:43.868Z,8.03
2023-02-24T05:42:45.315Z,8.01
2023-02-24T05:43:47.965Z,8.01
2023-02-24T05:44:49.180Z,8.00
2023-02-24T05:45:51.414Z,7.99
2023-02-24T05:46:53.986Z,7.96
2023-02-24T05:47:55.422Z,7.95
2023-02-24T05:48:57.768Z,7.94
2023-02-24T05:49:59.568Z,7.94
2023-02-24T05:51:05.234Z,7.95
2023-02-24T05:52:08.296Z,7.95
2023-02-24T05:53:09.824Z,7.95
2023-02-24T05:54:12.732Z,7.95
2023-02-24T05:55:14.436Z,7.93
2023-02-24T05:56:16.072Z,7.97
2023-02-24T05:57:18.736Z,7.95
2023-02-24T05:58:20.010Z,7.94
2023-02-24T05:59:21.582Z,7.94
2023-02-24T06:00:23.288Z,7.91
2023-02-24T06:01:26.120Z,7.91
2023-02-24T06:02:27.789Z,7.88
2023-02-24T06:03:29.650Z,7.87
2023-02-24T06:04:30.945Z,7.87
2023-02-24T06:05:32.342Z,7.88
2023-02-24T06:06:41.490Z,7.88
2023-02-24T06:07:42.877Z,7.87
2023-02-24T06:08:44.926Z,7.85
2023-02-24T06:09:46.899Z,7.83
2023-02-24T06:10:48.382Z,7.82
2023-02-24T06:11:49.951Z,7.80
2023-02-24T06:12:53.969Z,7.76
2023-02-24T06:13:56.379Z,7.80
2023-02-24T06:14:57.831Z,7.78
2023-02-24T06:15:59.767Z,7.74
2023-02-24T06:17:01.177Z,7.76
2023-02-24T06:18:02.447Z,7.72
2023-02-24T06:19:04.623Z,7.72
2023-02-24T06:20:06.434Z,7.72
2023-02-24T06:21:07.748Z,7.78
2023-02-24T06:22:11.987Z,7.74
2023-02-24T06:23:13.302Z,7.73
2023-02-24T06:24:14.841Z,7.71
2023-02-24T06:25:16.236Z,7.69
2023-02-24T06:26:17.684Z,7.69
2023-02-24T06:27:21.890Z,7.68
2023-02-24T06:28:23.954Z,7.68
2023-02-24T06:29:25.243Z,7.68
2023-02-24T06:30:26.781Z,7.67
2023-02-24T06:31:28.216Z,7.68
2023-02-24T06:32:29.650Z,7.69
2023-02-24T06:33:31.157Z,7.71
2023-02-24T06:34:32.375Z,7.72
2023-02-24T06:35:33.626Z,7.71
2023-02-24T06:36:34.904Z,7.71
2023-02-24T06:37:36.122Z,7.70
2023-02-24T06:38:37.387Z,7.70
2023-02-24T06:39:38.924Z,7.72
2023-02-24T06:40:40.505Z,7.74
2023-02-24T06:41:41.757Z,7.74
2023-02-24T06:42:47.178Z,7.74
2023-02-24T06:43:48.608Z,7.72
2023-02-24T06:44:49.938Z,7.71
2023-02-24T06:45:51.533Z,7.73
2023-02-24T06:46:54.385Z,7.66
2023-02-24T06:47:55.802Z,7.67
2023-02-24T06:48:58.303Z,7.70
2023-02-24T06:49:59.528Z,7.68
2023-02-24T06:51:04.587Z,7.69
2023-02-24T06:52:05.802Z,7.71
2023-02-24T06:53:07.271Z,7.73
2023-02-24T06:54:08.560Z,7.67
2023-02-24T06:55:10.171Z,7.67
2023-02-24T06:56:12.520Z,7.67
2023-02-24T06:57:13.998Z,7.68
2023-02-24T06:58:17.930Z,7.68
2023-02-24T06:59:19.154Z,7.71
2023-02-24T07:00:21.936Z,7.73
2023-02-24T07:01:25.300Z,7.72
2023-02-24T07:02:27.044Z,7.72
2023-02-24T07:03:28.744Z,7.72
2023-02-24T07:04:30.060Z,7.75
2023-02-24T07:05:32.576Z,7.78
2023-02-24T07:06:36.337Z,7.79
2023-02-24T07:07:37.591Z,7.78
2023-02-24T07:08:39.151Z,7.79
2023-02-24T07:09:40.639Z,7.80
2023-02-24T07:10:41.843Z,7.82
2023-02-24T07:11:46.737Z,7.80
2023-02-24T07:12:48.342Z,7.83
2023-02-24T07:13:49.641Z,7.78
2023-02-24T07:14:52.877Z,7.81
2023-02-24T07:15:54.392Z,7.83
2023-02-24T07:16:55.806Z,7.84
2023-02-24T07:17:57.600Z,7.84
2023-02-24T07:18:59.970Z,7.85
2023-02-24T07:20:01.506Z,7.84
2023-02-24T07:21:03.745Z,7.83
2023-02-24T07:22:05.186Z,7.84
2023-02-24T07:23:06.412Z,7.86
2023-02-24T07:24:08.360Z,7.87
2023-02-24T07:25:09.788Z,7.89
2023-02-24T07:26:13.250Z,7.89
2023-02-24T07:27:15.997Z,7.90
2023-02-24T07:28:17.320Z,7.89
2023-02-24T07:29:18.588Z,7.88
2023-02-24T07:30:21.468Z,7.89
2023-02-24T07:31:24.136Z,7.89
2023-02-24T07:32:25.861Z,7.91
2023-02-24T07:33:27.191Z,7.93
2023-02-24T07:34:29.445Z,7.93
2023-02-24T07:35:30.782Z,7.88
2023-02-24T07:36:32.522Z,7.86
2023-02-24T07:37:33.863Z,7.84
2023-02-24T07:38:38.537Z,7.83
2023-02-24T07:39:39.955Z,7.83
2023-02-24T07:40:41.263Z,7.85
2023-02-24T07:41:42.766Z,7.85
2023-02-24T07:42:44.196Z,7.87
2023-02-24T07:43:45.483Z,7.89
2023-02-24T07:44:47.067Z,7.91
2023-02-24T07:45:48.515Z,7.89
2023-02-24T07:46:50.298Z,7.89
2023-02-24T07:47:51.590Z,7.92
2023-02-24T07:48:53.616Z,7.88
2023-02-24T07:49:55.409Z,7.89
2023-02-24T07:50:56.715Z,7.91
2023-02-24T07:51:58.460Z,7.93
2023-02-24T07:52:59.757Z,7.95
2023-02-24T07:54:01.784Z,7.97
2023-02-24T07:55:03.200Z,7.98
2023-02-24T07:56:11.851Z,7.98
2023-02-24T07:57:13.083Z,8.00
2023-02-24T07:58:14.364Z,8.01
2023-02-24T07:59:17.335Z,8.02
2023-02-24T08:00:21.035Z,8.03
2023-02-24T08:01:23.778Z,8.06
2023-02-24T08:02:26.361Z,8.02
2023-02-24T08:03:28.050Z,8.02
2023-02-24T08:04:30.416Z,8.05
2023-02-24T08:05:36.887Z,8.07
2023-02-24T08:06:39.712Z,8.09
2023-02-24T08:07:40.957Z,8.10
2023-02-24T08:08:42.812Z,8.13
2023-02-24T08:09:44.196Z,8.14
2023-02-24T08:10:45.607Z,8.17
2023-02-24T08:11:46.838Z,8.22
2023-02-24T08:12:48.105Z,8.25
2023-02-24T08:13:49.375Z,8.24
2023-02-24T08:14:52.107Z,8.26
2023-02-24T08:15:53.640Z,8.27
2023-02-24T08:16:55.868Z,8.29
2023-02-24T08:17:58.423Z,8.31
2023-02-24T08:18:59.836Z,8.27
2023-02-24T08:20:01.561Z,8.26
2023-02-24T08:21:03.044Z,8.27
2023-02-24T08:22:04.332Z,8.30
2023-02-24T08:23:05.618Z,8.34
2023-02-24T08:24:13.224Z,8.36
2023-02-24T08:25:15.678Z,8.38
2023-02-24T08:26:17.192Z,8.39
2023-02-24T08:27:19.770Z,8.42
2023-02-24T08:28:21.201Z,8.43
2023-02-24T08:29:22.995Z,8.44
2023-02-24T08:30:25.773Z,8.44
2023-02-24T08:31:27.179Z,8.43
2023-02-24T08:32:31.776Z,8.48
2023-02-24T08:33:34.175Z,8.45
2023-02-24T08:34:38.519Z,8.45
2023-02-24T08:35:39.867Z,8.44
2023-02-24T08:36:42.010Z,8.43
2023-02-24T08:37:45.126Z,8.46
2023-02-24T08:38:46.483Z,8.46
2023-02-24T08:39:47.753Z,8.46
2023-02-24T08:40:50.512Z,8.46
2023-02-24T08:41:53.167Z,8.48
2023-02-24T08:42:54.476Z,8.50
2023-02-24T08:43:55.700Z,8.51
2023-02-24T08:44:56.904Z,8.52
2023-02-24T08:46:03.345Z,8.53
2023-02-24T08:47:04.685Z,8.52
2023-02-24T08:48:05.946Z,8.52
2023-02-24T08:49:10.066Z,8.53
2023-02-24T08:50:13.505Z,8.59
2023-02-24T08:51:20.483Z,8.61
2023-02-24T08:52:21.860Z,8.63
2023-02-24T08:53:24.301Z,8.63
2023-02-24T08:54:25.907Z,8.63
2023-02-24T08:55:27.438Z,8.66
2023-02-24T08:56:30.313Z,8.65
2023-02-24T08:57:33.949Z,8.64
2023-02-24T08:58:36.056Z,8.65
2023-02-24T08:59:37.922Z,8.64
2023-02-24T09:00:39.916Z,8.62
2023-02-24T09:01:41.502Z,8.62
2023-02-24T09:02:42.728Z,8.59
2023-02-24T09:03:47.893Z,8.61
2023-02-24T09:04:59.685Z,8.63
2023-02-24T09:06:06.062Z,8.67
2023-02-24T09:07:11.533Z,8.58
2023-02-24T09:08:13.326Z,8.62
2023-02-24T09:09:18.985Z,8.65
2023-02-24T09:10:20.665Z,8.66
2023-02-24T09:11:22.405Z,8.73
2023-02-24T09:12:25.196Z,8.73
2023-02-24T09:13:26.822Z,8.78
2023-02-24T09:14:29.615Z,8.77
2023-02-24T09:15:31.087Z,8.78
2023-02-24T09:16:32.507Z,8.80
2023-02-24T09:17:34.213Z,8.81
2023-02-24T09:18:35.617Z,8.83
2023-02-24T09:19:38.652Z,8.89
2023-02-24T09:20:41.645Z,8.89
2023-02-24T09:21:43.709Z,8.92
2023-02-24T09:22:46.914Z,8.95
2023-02-24T09:23:48.182Z,8.98
2023-02-24T09:24:49.382Z,9.04
2023-02-24T09:25:50.652Z,9.08
2023-02-24T09:26:54.185Z,9.03
2023-02-24T09:28:04.243Z,9.04
2023-02-24T09:29:05.464Z,9.04
2023-02-24T09:30:07.462Z,9.03
2023-02-24T09:31:09.041Z,9.03
2023-02-24T09:32:11.032Z,9.07
2023-02-24T09:33:14.297Z,9.03
2023-02-24T09:34:15.690Z,9.01
2023-02-24T09:35:17.004Z,9.01
2023-02-24T09:36:19.873Z,9.01
2023-02-24T09:37:21.160Z,9.06
2023-02-24T09:38:22.764Z,9.06
2023-02-24T09:39:24.862Z,9.10
2023-02-24T09:40:27.528Z,9.12
2023-02-24T09:41:45.885Z,9.19
2023-02-24T09:42:47.263Z,9.26
2023-02-24T09:43:48.705Z,9.28
2023-02-24T09:44:51.908Z,9.27
2023-02-24T09:45:56.215Z,9.28
2023-02-24T09:47:20.618Z,9.28
2023-02-24T09:48:35.163Z,9.30
2023-02-24T09:49:44.421Z,9.39
2023-02-24T09:51:01.960Z,9.38
2023-02-24T09:52:04.200Z,9.39
2023-02-24T09:53:11.459Z,9.41
2023-02-24T09:54:19.434Z,9.45
2023-02-24T09:55:31.522Z,9.45
2023-02-24T09:56:36.971Z,9.45
2023-02-24T09:57:49.158Z,9.42
2023-02-24T09:58:59.346Z,9.48
2023-02-24T10:00:03.956Z,9.43
2023-02-24T10:01:20.838Z,9.39
2023-02-24T10:02:44.828Z,9.38
2023-02-24T10:04:18.347Z,9.34
2023-02-24T10:05:31.367Z,9.34
2023-02-24T10:06:38.339Z,9.36
2023-02-24T10:07:40.930Z,9.37
2023-02-24T10:08:53.302Z,9.39
2023-02-24T10:09:59.277Z,9.43
2023-02-24T10:11:01.492Z,9.48
2023-02-24T10:12:22.975Z,9.46
2023-02-24T10:13:25.525Z,9.39
2023-02-24T10:14:44.075Z,9.33
2023-02-24T10:15:47.416Z,9.34
2023-02-24T10:16:49.202Z,9.38
2023-02-24T10:17:50.763Z,9.38
2023-02-24T10:18:55.999Z,9.40
2023-02-24T10:20:00.217Z,9.35
2023-02-24T10:21:16.200Z,9.35
2023-02-24T10:22:17.467Z,9.36
2023-02-24T10:23:32.266Z,9.36
2023-02-24T10:24:46.960Z,9.34
2023-02-24T10:25:51.745Z,9.32
2023-02-24T10:27:07.617Z,9.32
2023-02-24T10:28:22.872Z,9.34
2023-02-24T10:29:33.441Z,9.34
2023-02-24T10:30:47.336Z,9.33
2023-02-24T10:31:54.805Z,9.28
2023-02-24T10:32:57.354Z,9.30
2023-02-24T10:34:08.713Z,9.22
2023-02-24T10:35:17.266Z,9.14
2023-02-24T10:36:19.406Z,9.14
2023-02-24T10:37:28.230Z,9.16
2023-02-24T10:38:30.094Z,9.16
2023-02-24T10:39:31.578Z,9.12
2023-02-24T10:40:33.706Z,9.12
2023-02-24T10:41:48.816Z,9.12
2023-02-24T10:42:50.171Z,9.13
2023-02-24T10:43:55.611Z,9.14
2023-02-24T10:45:09.805Z,9.11
2023-02-24T10:46:39.927Z,9.11
2023-02-24T10:47:43.815Z,9.12
2023-02-24T10:48:52.299Z,9.11
2023-02-24T10:49:58.161Z,9.11
2023-02-24T10:50:59.469Z,9.15
2023-02-24T10:52:00.767Z,9.17
2023-02-24T10:53:05.586Z,9.11
2023-02-24T10:54:14.803Z,9.06
2023-02-24T10:55:33.017Z,9.05
2023-02-24T10:56:34.347Z,9.13
2023-02-24T10:57:58.157Z,9.19
2023-02-24T10:59:04.061Z,9.19
2023-02-24T11:00:15.041Z,9.14
2023-02-24T11:01:24.009Z,9.13
2023-02-24T11:02:26.904Z,9.13
2023-02-24T11:03:32.950Z,9.14
2023-02-24T11:04:36.922Z,9.20
2023-02-24T11:05:43.097Z,9.28
2023-02-24T11:06:44.516Z,9.31
2023-02-24T11:07:45.820Z,9.35
2023-02-24T11:08:58.685Z,9.43
2023-02-24T11:10:11.296Z,9.44
2023-02-24T11:11:21.573Z,9.47
2023-02-24T11:12:24.116Z,9.43
2023-02-24T11:13:26.272Z,9.35
2023-02-24T11:14:28.099Z,9.37
2023-02-24T11:15:32.700Z,9.38
2023-02-24T11:16:40.983Z,9.45
2023-02-24T11:17:56.598Z,9.40
2023-02-24T11:18:58.102Z,9.39
2023-02-24T11:20:02.450Z,9.40
2023-02-24T11:21:05.240Z,9.47
2023-02-24T11:22:07.530Z,9.48
2023-02-24T11:23:13.268Z,9.49
2023-02-24T11:24:18.663Z,9.46
2023-02-24T11:25:25.595Z,9.49
2023-02-24T11:26:37.432Z,9.55
2023-02-24T11:27:41.144Z,9.62
2023-02-24T11:28:52.855Z,9.67
2023-02-24T11:30:05.025Z,9.65
2023-02-24T11:31:31.902Z,9.60
2023-02-24T11:32:36.353Z,9.64
2023-02-24T11:33:44.636Z,9.66
2023-02-24T11:35:04.913Z,9.68
2023-02-24T11:36:09.432Z,9.65
2023-02-24T11:37:20.903Z,9.67
2023-02-24T11:38:28.221Z,9.70
2023-02-24T11:39:52.044Z,9.81
2023-02-24T11:41:12.092Z,9.87
2023-02-24T11:42:16.490Z,9.86
2023-02-24T11:43:19.382Z,9.93
2023-02-24T11:44:27.365Z,9.93
2023-02-24T11:45:33.645Z,9.91
2023-02-24T11:46:47.304Z,9.97
2023-02-24T11:47:53.165Z,9.92
2023-02-24T11:48:56.704Z,9.96
2023-02-24T11:50:16.932Z,10.01
2023-02-24T11:51:20.962Z,10.06
2023-02-24T11:52:28.640Z,10.10
2023-02-24T11:53:34.308Z,10.09
2023-02-24T11:54:38.463Z,10.03
2023-02-24T11:55:41.115Z,10.03
2023-02-24T11:56:45.473Z,10.03
2023-02-24T11:57:51.218Z,10.04
2023-02-24T11:58:58.407Z,10.01
2023-02-24T12:00:15.944Z,9.92
2023-02-24T12:01:22.580Z,9.89
2023-02-24T12:02:45.980Z,9.94
2023-02-24T12:04:06.056Z,9.82
2023-02-24T12:05:10.789Z,9.93
2023-02-24T12:06:16.798Z,9.99
2023-02-24T12:07:22.383Z,10.05
2023-02-24T12:08:26.805Z,9.99
2023-02-24T12:09:30.760Z,10.08
2023-02-24T12:10:36.026Z,10.16
2023-02-24T12:11:42.817Z,10.19
2023-02-24T12:13:03.352Z,10.16
2023-02-24T12:14:21.541Z,10.20
2023-02-24T12:15:25.779Z,10.21
2023-02-24T12:16:33.029Z,10.20
2023-02-24T12:17:40.904Z,10.21
2023-02-24T12:18:50.532Z,10.19
2023-02-24T12:20:18.386Z,10.26
2023-02-24T12:21:34.531Z,10.35
2023-02-24T12:22:43.880Z,10.46
2023-02-24T12:23:46.758Z,10.44
2023-02-24T12:24:51.888Z,10.45
2023-02-24T12:25:55.959Z,10.49
2023-02-24T12:27:00.246Z,10.59
2023-02-24T12:28:20.239Z,10.61
2023-02-24T12:29:47.832Z,10.72
2023-02-24T12:31:08.016Z,10.83
2023-02-24T12:32:30.754Z,10.83
2023-02-24T12:33:35.279Z,10.88
2023-02-24T12:34:44.126Z,10.90
2023-02-24T12:35:59.079Z,10.95
2023-02-24T12:37:15.602Z,11.04
2023-02-24T12:38:35.902Z,11.08
2023-02-24T12:39:58.638Z,11.01
2023-02-24T12:41:12.260Z,10.98
2023-02-24T12:42:26.385Z,11.03
2023-02-24T12:43:32.459Z,10.97
2023-02-24T12:44:41.831Z,10.94
2023-02-24T12:45:46.154Z,10.97
2023-02-24T12:46:54.266Z,10.93
2023-02-24T12:48:09.829Z,11.03
2023-02-24T12:49:30.068Z,11.09
2023-02-24T12:50:53.295Z,11.15
2023-02-24T12:51:57.329Z,11.21
2023-02-24T12:53:11.123Z,11.23
2023-02-24T12:54:12.515Z,11.08
2023-02-24T12:55:20.424Z,11.14
2023-02-24T12:56:23.708Z,11.12
2023-02-24T12:57:42.516Z,11.20
2023-02-24T12:58:45.386Z,11.15
2023-02-24T12:59:47.422Z,11.26
2023-02-24T13:00:52.012Z,11.36
2023-02-24T13:01:56.767Z,11.39
2023-02-24T13:02:57.955Z,11.41
2023-02-24T13:04:02.337Z,11.41
2023-02-24T13:05:21.426Z,11.44
2023-02-24T13:06:22.818Z,11.50
2023-02-24T13:07:27.223Z,11.53
2023-02-24T13:08:39.859Z,11.52
2023-02-24T13:09:51.851Z,11.49
2023-02-24T13:10:56.330Z,11.49
2023-02-24T13:12:11.145Z,11.43
2023-02-24T13:13:32.987Z,11.40
2023-02-24T13:14:39.843Z,11.39
2023-02-24T13:19:52.689Z,11.12
2023-02-24T13:24:23.309Z,11.21
2023-02-24T13:25:39.843Z,11.14
2023-02-24T13:28:53.117Z,11.12
2023-02-24T13:33:39.581Z,11.02
2023-02-24T13:34:49.119Z,11.02
2023-02-24T13:45:40.129Z,10.90
2023-02-24T13:47:01.220Z,10.88
2023-02-24T13:48:22.753Z,10.93
2023-02-24T13:49:33.822Z,10.94
2023-02-24T13:50:55.430Z,10.98
2023-02-24T13:52:07.811Z,11.06
2023-02-24T13:53:28.278Z,11.10
2023-02-24T13:54:38.952Z,11.08
2023-02-24T13:55:42.781Z,11.06
2023-02-24T13:56:51.637Z,11.11
2023-02-24T13:57:56.140Z,11.06
2023-02-24T13:59:03.721Z,11.04
2023-02-24T14:00:29.668Z,11.05
2023-02-24T14:01:32.588Z,11.02
2023-02-24T14:02:38.290Z,10.99
2023-02-24T14:03:41.084Z,10.98
2023-02-24T14:04:48.248Z,10.85
2023-02-24T14:05:50.339Z,10.86
2023-02-24T14:06:53.058Z,10.86
2023-02-24T14:07:55.219Z,10.84
2023-02-24T14:09:00.948Z,10.87
2023-02-24T14:10:04.189Z,10.85
2023-02-24T14:11:07.463Z,10.88
2023-02-24T14:12:28.903Z,10.89
2023-02-24T14:13:32.043Z,10.90
2023-02-24T14:14:33.320Z,10.83
2023-02-24T14:15:35.787Z,10.86
2023-02-24T14:16:38.330Z,10.86
2023-02-24T14:17:39.984Z,10.86
2023-02-24T14:18:41.272Z,10.83
2023-02-24T14:19:42.673Z,10.79
2023-02-24T14:20:46.902Z,10.78
2023-02-24T14:21:52.410Z,10.75
2023-02-24T14:22:57.767Z,10.70
2023-02-24T14:24:00.276Z,10.68
2023-02-24T14:25:07.796Z,10.68
2023-02-24T14:26:12.791Z,10.70
2023-02-24T14:27:21.226Z,10.67
2023-02-24T14:28:45.941Z,10.65
2023-02-24T14:29:50.602Z,10.62
2023-02-24T14:30:55.516Z,10.59
2023-02-24T14:31:58.221Z,10.57
2023-02-24T14:32:59.813Z,10.54
2023-02-24T14:34:05.444Z,10.49
2023-02-24T14:35:19.317Z,10.52
2023-02-24T14:36:25.521Z,10.50
2023-02-24T14:37:30.731Z,10.53
2023-02-24T14:38:33.782Z,10.53
2023-02-24T14:39:35.401Z,10.50
2023-02-24T14:40:47.150Z,10.46
2023-02-24T14:41:49.398Z,10.45
2023-02-24T14:42:51.253Z,10.43
2023-02-24T14:43:52.625Z,10.40
2023-02-24T14:46:10.619Z,10.36
2023-02-24T14:50:13.477Z,10.29
2023-02-24T14:51:23.739Z,10.27
2023-02-24T14:52:28.833Z,10.24